Time;durP1;ratioP1;P1;durP2;ratioP2;P2;SDS_P1;SDS_P2;PMS_P1;PMS_P2;Temp;Humidity;BMP_temperature;BMP_pressure;BME280_temperature;BME280_humidity;BME280_pressure;Samples;Min_cycle;Max_cycle;Signal;HPM_P1;HPM_P2
2021/08/19 00:00:00;;;;;;;1.30;0.60;;;13.70;99.90;;;;;;5054402;28;20140;-69
2021/08/19 00:02:26;;;;;;;0.82;0.55;;;13.70;99.90;;;;;;5054337;28;20083;-68
2021/08/19 00:04:52;;;;;;;1.75;0.47;;;13.70;99.90;;;;;;5054306;28;20037;-69
2021/08/19 00:07:19;;;;;;;0.60;0.50;;;13.70;99.90;;;;;;5054237;28;20048;-69
2021/08/19 00:09:45;;;;;;;1.50;0.73;;;13.70;99.90;;;;;;5054263;28;20063;-69
2021/08/19 00:12:10;;;;;;;0.70;0.50;;;13.70;99.90;;;;;;5054238;28;20449;-69
2021/08/19 00:14:37;;;;;;;0.50;0.50;;;13.70;99.90;;;;;;5054368;28;20029;-69
2021/08/19 00:17:05;;;;;;;1.13;0.50;;;13.70;99.90;;;;;;5054127;28;20568;-69
2021/08/19 00:19:31;;;;;;;0.45;0.40;;;13.70;99.90;;;;;;5054046;28;20052;-68
2021/08/19 00:21:57;;;;;;;2.25;0.50;;;13.70;99.90;;;;;;5053918;28;20025;-69
2021/08/19 00:24:22;;;;;;;0.43;0.43;;;13.70;99.90;;;;;;5054206;28;20021;-69
2021/08/19 00:26:48;;;;;;;3.85;0.50;;;13.70;99.90;;;;;;5052992;28;20025;-69
2021/08/19 00:29:14;;;;;;;1.65;0.47;;;13.80;99.90;;;;;;5053816;28;20025;-69
2021/08/19 00:31:39;;;;;;;2.00;0.50;;;13.80;99.90;;;;;;5053674;28;20038;-70
2021/08/19 00:34:05;;;;;;;2.72;0.60;;;13.80;99.90;;;;;;5053864;28;20063;-70
2021/08/19 00:36:31;;;;;;;1.75;0.43;;;13.80;99.90;;;;;;5053677;28;20479;-70
2021/08/19 00:39:01;;;;;;;0.77;0.47;;;13.80;99.90;;;;;;5053744;28;20033;-70
2021/08/19 00:41:26;;;;;;;1.35;0.63;;;13.80;99.90;;;;;;5053654;28;20036;-69
2021/08/19 00:43:54;;;;;;;1.13;0.40;;;13.70;99.90;;;;;;5053842;28;20037;-69
2021/08/19 00:46:38;;;;;;;3.65;0.52;;;13.80;99.90;;;;;;5053492;28;20025;-69
2021/08/19 00:49:14;;;;;;;1.90;0.68;;;13.80;99.90;;;;;;5053469;28;20063;-69
2021/08/19 00:51:51;;;;;;;3.83;0.70;;;13.80;99.90;;;;;;5053450;28;20021;-69
2021/08/19 00:54:23;;;;;;;0.73;0.50;;;13.80;99.90;;;;;;5053377;28;20041;-69
2021/08/19 00:56:57;;;;;;;1.45;0.50;;;13.80;99.90;;;;;;5053288;28;20025;-69
2021/08/19 00:59:24;;;;;;;1.60;0.52;;;13.80;99.90;;;;;;5053172;28;20029;-69
2021/08/19 01:01:53;;;;;;;2.72;0.50;;;13.80;99.90;;;;;;5053389;28;20032;-69
2021/08/19 01:04:19;;;;;;;3.97;0.60;;;13.80;99.90;;;;;;5053421;28;20036;-69
2021/08/19 01:06:45;;;;;;;0.70;0.43;;;13.80;99.90;;;;;;5053353;28;20419;-69
2021/08/19 01:09:11;;;;;;;1.15;0.60;;;13.80;99.90;;;;;;5053209;28;20500;-69
2021/08/19 01:11:40;;;;;;;0.85;0.70;;;13.70;99.90;;;;;;5053249;28;20495;-69
2021/08/19 01:14:06;;;;;;;1.83;0.70;;;13.70;99.90;;;;;;5052922;28;20025;-69
2021/08/19 01:16:32;;;;;;;1.58;0.60;;;13.70;99.90;;;;;;5053213;28;20075;-69
2021/08/19 01:45:37;;;;;;;0.73;0.60;;;13.40;99.90;;;;;;5052523;28;20040;-70
2021/08/19 01:48:03;;;;;;;2.58;0.80;;;13.30;99.90;;;;;;5052541;28;20464;-70
2021/08/19 01:50:29;;;;;;;1.85;0.60;;;13.30;99.90;;;;;;5052357;28;20031;-68
2021/08/19 01:52:54;;;;;;;1.73;0.70;;;13.30;99.90;;;;;;5052458;28;20055;-69
2021/08/19 01:55:20;;;;;;;0.55;0.55;;;13.20;99.90;;;;;;5052061;28;20024;-70
2021/08/19 01:57:46;;;;;;;2.65;0.80;;;13.20;99.90;;;;;;5052275;28;20021;-70
2021/08/19 02:00:12;;;;;;;1.67;1.35;;;13.10;99.90;;;;;;5052336;28;20033;-70
2021/08/19 02:02:37;;;;;;;1.48;0.73;;;13.10;99.90;;;;;;5052173;28;20032;-70
2021/08/19 02:05:03;;;;;;;1.55;0.80;;;13.10;99.90;;;;;;5052219;28;20025;-70
2021/08/19 02:07:29;;;;;;;0.90;0.68;;;13.00;99.90;;;;;;5051938;28;20100;-70
2021/08/19 02:09:55;;;;;;;0.60;0.60;;;13.00;99.90;;;;;;5052018;28;20029;-70
2021/08/19 02:12:20;;;;;;;8.50;0.88;;;13.00;99.90;;;;;;5051861;28;20029;-69
2021/08/19 02:14:46;;;;;;;0.40;0.40;;;13.00;99.90;;;;;;5051841;28;20056;-69
2021/08/19 02:17:12;;;;;;;7.82;0.77;;;13.00;99.90;;;;;;5051949;28;20021;-69
2021/08/19 02:19:38;;;;;;;1.35;0.70;;;12.90;99.90;;;;;;5051735;28;20037;-69
2021/08/19 02:22:03;;;;;;;4.32;0.70;;;12.90;99.90;;;;;;5051944;28;20053;-69
2021/08/19 02:24:29;;;;;;;1.73;0.70;;;12.90;99.90;;;;;;5051791;28;20059;-69
2021/08/19 02:26:55;;;;;;;3.70;0.90;;;12.90;99.90;;;;;;5052063;28;20044;-69
2021/08/19 02:29:21;;;;;;;2.03;0.60;;;12.90;99.90;;;;;;5051740;28;20033;-69
2021/08/19 02:31:46;;;;;;;2.80;1.00;;;12.90;99.90;;;;;;5051839;28;20092;-69
2021/08/19 02:34:12;;;;;;;1.17;0.75;;;12.80;99.90;;;;;;5051794;28;20029;-69
2021/08/19 02:36:38;;;;;;;2.42;0.73;;;12.80;99.90;;;;;;5051585;28;20061;-69
2021/08/19 02:39:03;;;;;;;3.10;1.00;;;12.80;99.90;;;;;;5051708;28;20029;-69
2021/08/19 02:41:29;;;;;;;1.80;0.80;;;12.90;99.90;;;;;;5051545;28;20025;-69
2021/08/19 02:43:55;;;;;;;2.17;0.90;;;12.90;99.90;;;;;;5051656;28;20025;-69
2021/08/19 02:46:21;;;;;;;3.78;0.82;;;12.90;99.90;;;;;;5051503;28;20028;-69
2021/08/19 02:48:46;;;;;;;3.20;1.10;;;12.90;99.90;;;;;;5052098;28;20029;-69
2021/08/19 02:51:12;;;;;;;3.28;0.98;;;13.00;99.90;;;;;;5055645;28;20028;-69
2021/08/19 02:53:38;;;;;;;1.67;0.90;;;13.00;99.90;;;;;;5055409;28;20056;-69
2021/08/19 02:56:04;;;;;;;3.38;1.13;;;13.00;99.90;;;;;;5055575;28;20475;-69
2021/08/19 02:58:30;;;;;;;4.05;1.25;;;13.00;99.90;;;;;;5055264;28;20505;-69
2021/08/19 03:00:55;;;;;;;1.52;0.82;;;13.10;99.90;;;;;;5055432;28;20032;-69
2021/08/19 03:03:21;;;;;;;2.50;1.02;;;13.10;99.90;;;;;;5055461;28;20024;-70
2021/08/19 03:05:47;;;;;;;1.52;0.80;;;13.10;99.90;;;;;;5055637;28;20028;-69
2021/08/19 03:08:12;;;;;;;1.30;1.00;;;13.10;99.90;;;;;;5055735;28;20407;-69
2021/08/19 03:10:38;;;;;;;2.08;0.80;;;13.10;99.90;;;;;;5055417;28;20061;-69
2021/08/19 03:13:04;;;;;;;1.35;0.85;;;13.10;99.90;;;;;;5055717;28;20033;-69
2021/08/19 03:15:30;;;;;;;2.45;0.95;;;13.20;99.90;;;;;;5055313;28;20477;-69
2021/08/19 03:17:55;;;;;;;1.00;0.70;;;13.20;99.90;;;;;;5055259;28;20678;-69
2021/08/19 03:20:21;;;;;;;1.38;0.70;;;13.20;99.90;;;;;;5055086;28;20035;-69
2021/08/19 03:22:50;;;;;;;1.23;0.80;;;13.20;99.90;;;;;;5054896;28;20040;-69
2021/08/19 03:25:16;;;;;;;1.95;1.15;;;13.20;99.90;;;;;;5054907;28;20075;-69
2021/08/19 03:27:42;;;;;;;1.70;1.00;;;13.20;99.90;;;;;;5055138;28;20034;-69
2021/08/19 03:30:08;;;;;;;2.88;0.80;;;13.10;99.90;;;;;;5055143;28;20022;-69
2021/08/19 03:32:35;;;;;;;3.60;0.82;;;13.10;99.90;;;;;;5055028;28;20234;-69
2021/08/19 03:35:01;;;;;;;2.85;1.10;;;13.20;99.90;;;;;;5054665;28;20025;-69
2021/08/19 03:37:29;;;;;;;1.23;0.70;;;13.20;99.90;;;;;;5054963;28;20044;-69
2021/08/19 03:39:54;;;;;;;1.45;0.98;;;13.20;99.90;;;;;;5054575;28;20120;-70
2021/08/19 03:42:20;;;;;;;1.02;0.82;;;13.10;99.90;;;;;;5054775;28;20103;-70
2021/08/19 03:44:46;;;;;;;3.67;0.93;;;13.10;99.90;;;;;;5054453;28;20029;-70
2021/08/19 03:47:12;;;;;;;2.03;0.90;;;13.10;99.90;;;;;;5054866;28;20031;-70
2021/08/19 03:49:37;;;;;;;2.47;0.90;;;13.10;99.90;;;;;;5054393;28;20492;-70
2021/08/19 03:52:03;;;;;;;1.83;0.80;;;13.10;99.90;;;;;;5054513;28;20060;-70
2021/08/19 03:54:29;;;;;;;2.75;0.90;;;13.10;99.90;;;;;;5054660;28;20481;-69
2021/08/19 03:56:55;;;;;;;0.75;0.70;;;13.10;99.90;;;;;;5053128;28;20033;-70
2021/08/19 03:59:21;;;;;;;2.55;0.90;;;13.20;99.90;;;;;;5054632;28;20048;-70
2021/08/19 04:01:47;;;;;;;1.30;0.88;;;13.10;99.90;;;;;;5053052;28;20444;-70
2021/08/19 04:04:13;;;;;;;1.17;0.73;;;13.10;99.90;;;;;;5054583;28;20025;-69
2021/08/19 04:06:39;;;;;;;1.13;1.00;;;13.20;99.90;;;;;;5054260;28;20544;-69
2021/08/19 04:09:05;;;;;;;2.45;1.08;;;13.20;99.90;;;;;;5054402;28;20029;-69
2021/08/19 04:11:31;;;;;;;2.70;1.02;;;13.20;99.90;;;;;;5054269;28;20111;-69
2021/08/19 04:13:57;;;;;;;2.42;0.80;;;13.20;99.90;;;;;;5053932;28;20108;-70
2021/08/19 04:16:23;;;;;;;1.77;1.00;;;13.20;99.90;;;;;;5054016;28;20025;-70
2021/08/19 04:18:48;;;;;;;2.15;0.80;;;13.20;99.90;;;;;;5053749;28;20075;-70
2021/08/19 04:21:14;;;;;;;1.15;1.02;;;13.20;99.90;;;;;;5053847;28;20059;-69
2021/08/19 04:23:43;;;;;;;1.10;0.88;;;13.20;99.90;;;;;;5054013;28;20040;-69
2021/08/19 04:26:10;;;;;;;2.97;0.98;;;13.20;99.90;;;;;;5053761;28;20166;-70
2021/08/19 04:28:36;;;;;;;3.67;0.90;;;13.20;99.90;;;;;;5053960;28;20108;-69
2021/08/19 04:31:01;;;;;;;0.82;0.80;;;13.30;99.90;;;;;;5053760;28;20531;-67
2021/08/19 04:33:28;;;;;;;2.05;1.55;;;13.30;99.90;;;;;;5053685;28;20108;-67
2021/08/19 04:35:55;;;;;;;1.00;0.90;;;13.30;99.90;;;;;;5053705;28;20507;-69
2021/08/19 04:38:21;;;;;;;5.75;0.93;;;13.30;99.90;;;;;;5053704;28;20082;-68
2021/08/19 04:40:47;;;;;;;1.38;0.85;;;13.40;99.90;;;;;;5053503;28;20183;-67
2021/08/19 04:43:13;;;;;;;2.83;0.93;;;13.90;99.90;;;;;;5053498;28;20100;-66
2021/08/19 04:45:39;;;;;;;0.75;0.75;;;13.90;99.90;;;;;;5053332;28;20028;-68
2021/08/19 04:48:05;;;;;;;1.52;0.98;;;13.70;99.90;;;;;;5064166;28;20565;-69
2021/08/19 04:50:30;;;;;;;1.40;0.80;;;13.60;99.90;;;;;;5058483;28;20098;-70
2021/08/19 04:52:56;;;;;;;2.78;1.00;;;13.60;99.90;;;;;;5060260;28;20076;-69
2021/08/19 04:55:22;;;;;;;4.80;1.08;;;13.60;99.90;;;;;;5062797;28;20383;-69
2021/08/19 04:57:48;;;;;;;1.10;0.90;;;13.70;99.90;;;;;;5058019;28;20036;-68
2021/08/19 05:00:13;;;;;;;4.90;1.85;;;13.80;99.90;;;;;;5058186;28;20060;-68
2021/08/19 05:02:39;;;;;;;5.25;1.50;;;13.80;99.90;;;;;;5058253;28;20021;-68
2021/08/19 05:05:06;;;;;;;2.15;1.20;;;13.80;99.90;;;;;;5069576;28;20027;-69
2021/08/19 05:07:32;;;;;;;3.33;0.95;;;13.80;99.90;;;;;;5055481;28;20029;-68
2021/08/19 05:09:58;;;;;;;4.45;1.00;;;13.80;99.90;;;;;;5053326;28;20485;-68
2021/08/19 05:12:24;;;;;;;4.28;1.30;;;13.80;99.90;;;;;;5052749;28;20102;-69
2021/08/19 05:14:50;;;;;;;2.03;0.90;;;13.80;99.90;;;;;;5052785;28;20419;-67
2021/08/19 05:17:15;;;;;;;2.30;1.20;;;13.90;99.90;;;;;;5052825;28;20033;-68
2021/08/19 05:19:41;;;;;;;4.25;1.27;;;13.90;99.90;;;;;;5052828;28;20040;-67
2021/08/19 05:22:07;;;;;;;1.50;1.00;;;13.90;99.90;;;;;;5052775;28;20104;-67
2021/08/19 05:24:33;;;;;;;3.72;1.58;;;14.00;99.90;;;;;;5052585;28;20025;-67
2021/08/19 05:26:58;;;;;;;3.03;1.20;;;14.00;99.90;;;;;;5052625;28;20021;-69
2021/08/19 05:29:24;;;;;;;1.38;1.27;;;14.10;99.90;;;;;;5051691;28;20108;-69
2021/08/19 05:31:50;;;;;;;4.47;1.13;;;14.10;99.90;;;;;;5061100;28;20501;-67
2021/08/19 05:34:15;;;;;;;3.58;1.20;;;14.10;99.90;;;;;;5072910;28;20024;-67
2021/08/19 05:36:41;;;;;;;2.67;1.10;;;14.10;99.90;;;;;;5072529;28;20396;-68
2021/08/19 05:39:07;;;;;;;2.05;1.10;;;14.20;99.90;;;;;;5072306;28;20111;-68
2021/08/19 05:41:33;;;;;;;3.00;1.23;;;14.30;99.90;;;;;;5072423;28;20112;-68
2021/08/19 05:43:59;;;;;;;1.67;0.90;;;14.30;99.90;;;;;;5072322;28;20024;-68
2021/08/19 05:46:25;;;;;;;3.08;1.08;;;14.40;99.90;;;;;;5072262;28;20028;-68
2021/08/19 05:48:51;;;;;;;1.10;1.00;;;14.50;99.90;;;;;;5072509;28;20294;-68
2021/08/19 05:51:16;;;;;;;1.98;1.20;;;14.50;99.90;;;;;;5072485;28;20048;-67
2021/08/19 05:53:42;;;;;;;5.30;1.00;;;14.50;99.90;;;;;;5071844;28;20102;-68
2021/08/19 05:56:09;;;;;;;2.22;0.88;;;14.50;99.90;;;;;;5072119;28;20029;-68
2021/08/19 05:58:35;;;;;;;1.98;1.25;;;14.50;99.90;;;;;;5072221;28;20040;-68
2021/08/19 06:01:01;;;;;;;1.40;0.93;;;14.60;99.90;;;;;;5071644;28;20489;-69
2021/08/19 06:03:27;;;;;;;4.20;1.13;;;14.60;99.90;;;;;;5054395;28;20040;-70
2021/08/19 06:05:52;;;;;;;2.58;1.25;;;14.60;99.90;;;;;;5052139;28;20124;-72
2021/08/19 06:08:18;;;;;;;2.95;1.05;;;14.60;99.90;;;;;;5051904;28;20025;-71
2021/08/19 06:10:44;;;;;;;3.55;1.15;;;14.60;99.90;;;;;;5051880;28;20473;-71
2021/08/19 06:13:10;;;;;;;2.33;0.93;;;14.70;99.90;;;;;;5060329;28;20063;-70
2021/08/19 06:15:36;;;;;;;2.38;1.23;;;14.70;99.90;;;;;;5061764;28;20020;-71
2021/08/19 06:18:03;;;;;;;1.83;0.93;;;14.70;99.90;;;;;;5061809;28;20493;-71
2021/08/19 06:20:29;;;;;;;2.67;0.90;;;14.90;99.90;;;;;;5062214;28;20116;-68
2021/08/19 06:22:55;;;;;;;5.10;1.08;;;15.00;99.90;;;;;;5061446;28;20484;-69
2021/08/19 06:25:22;;;;;;;1.77;1.02;;;15.10;99.90;;;;;;5062506;28;20036;-68
2021/08/19 06:27:48;;;;;;;2.50;1.15;;;15.20;99.90;;;;;;5060635;28;20021;-69
2021/08/19 06:30:14;;;;;;;2.78;0.85;;;15.30;99.90;;;;;;5056007;28;20046;-70
2021/08/19 06:32:41;;;;;;;4.32;1.08;;;15.30;99.90;;;;;;5051587;28;20035;-78
2021/08/19 06:35:08;;;;;;;3.40;1.00;;;15.20;99.90;;;;;;5051694;28;20025;-79
2021/08/19 06:37:34;;;;;;;4.95;1.05;;;15.20;99.90;;;;;;5051368;28;20055;-77
2021/08/19 06:40:00;;;;;;;1.35;0.93;;;15.20;99.90;;;;;;5051512;28;20029;-79
2021/08/19 06:42:26;;;;;;;2.38;1.10;;;15.20;99.90;;;;;;5051970;28;20025;-80
2021/08/19 06:44:52;;;;;;;1.85;0.90;;;15.20;99.90;;;;;;5051562;28;20496;-80
2021/08/19 06:47:17;;;;;;;3.88;0.95;;;15.20;99.90;;;;;;5051593;28;20400;-79
2021/08/19 06:49:44;;;;;;;3.53;1.10;;;15.30;99.90;;;;;;5054037;28;20476;-79
2021/08/19 06:52:10;;;;;;;4.80;1.40;;;15.30;99.90;;;;;;5065993;28;20036;-79
2021/08/19 06:54:36;;;;;;;1.83;1.02;;;15.30;99.90;;;;;;5071507;28;20025;-69
2021/08/19 06:57:02;;;;;;;2.92;1.20;;;15.30;99.90;;;;;;5071041;28;20021;-68
2021/08/19 06:59:28;;;;;;;2.97;1.08;;;15.20;99.90;;;;;;5061825;28;20115;-68
2021/08/19 07:01:54;;;;;;;5.47;1.80;;;15.30;99.90;;;;;;5051254;28;20381;-68
2021/08/19 07:04:20;;;;;;;2.40;1.20;;;15.20;99.90;;;;;;5051690;28;20029;-68
2021/08/19 07:06:46;;;;;;;1.38;1.23;;;15.20;99.90;;;;;;5051222;28;20028;-68
2021/08/19 07:09:12;;;;;;;1.10;1.00;;;15.30;99.90;;;;;;5051618;28;20065;-68
2021/08/19 07:11:38;;;;;;;1.98;1.35;;;15.30;99.90;;;;;;5058723;28;20025;-68
2021/08/19 07:14:04;;;;;;;2.45;1.30;;;15.40;99.90;;;;;;5071712;28;20031;-68
2021/08/19 07:16:30;;;;;;;2.83;1.30;;;15.40;99.90;;;;;;5070846;28;20488;-68
2021/08/19 07:18:55;;;;;;;1.73;1.13;;;15.40;99.90;;;;;;5071069;28;20043;-68
2021/08/19 07:21:21;;;;;;;4.20;1.20;;;15.40;99.90;;;;;;5055812;28;20029;-68
2021/08/19 07:23:47;;;;;;;1.58;1.30;;;15.50;99.90;;;;;;5051377;28;20025;-68
2021/08/19 07:26:13;;;;;;;2.75;1.27;;;15.50;99.90;;;;;;5051523;28;20468;-69
2021/08/19 07:28:39;;;;;;;2.95;1.40;;;15.50;99.90;;;;;;5069735;28;20029;-68
2021/08/19 07:31:04;;;;;;;3.22;1.48;;;15.60;99.90;;;;;;5071330;28;20109;-69
2021/08/19 07:33:30;;;;;;;2.20;1.58;;;15.60;99.90;;;;;;5071308;28;20503;-70
2021/08/19 07:35:56;;;;;;;3.85;1.23;;;15.70;99.90;;;;;;5073218;28;20032;-70
2021/08/19 07:38:22;;;;;;;3.70;1.67;;;15.90;99.90;;;;;;5074775;28;20021;-70
2021/08/19 07:40:48;;;;;;;2.38;1.30;;;16.00;99.90;;;;;;5074894;28;20033;-70
2021/08/19 07:43:15;;;;;;;2.88;1.25;;;15.90;99.90;;;;;;5074841;28;20028;-70
2021/08/19 07:45:40;;;;;;;3.50;1.50;;;15.90;99.90;;;;;;5074438;28;20032;-70
2021/08/19 07:48:08;;;;;;;2.22;1.40;;;15.80;99.90;;;;;;5074518;28;20029;-70
2021/08/19 07:50:34;;;;;;;2.42;1.38;;;15.80;99.90;;;;;;5074445;28;20028;-70
2021/08/19 07:53:00;;;;;;;2.42;1.60;;;15.80;99.90;;;;;;5065185;28;20048;-69
2021/08/19 07:55:26;;;;;;;2.88;1.70;;;15.80;99.90;;;;;;5067056;28;20021;-70
2021/08/19 07:57:51;;;;;;;3.10;2.10;;;15.90;99.90;;;;;;5067216;28;20482;-70
2021/08/19 08:00:23;;;;;;;3.25;1.50;;;15.90;99.90;;;;;;5068410;28;20028;-70
2021/08/19 08:02:48;;;;;;;3.88;1.58;;;16.00;99.90;;;;;;5068861;28;20523;-70
2021/08/19 08:05:14;;;;;;;2.88;1.65;;;16.00;99.90;;;;;;5054436;28;20032;-70
2021/08/19 08:07:40;;;;;;;3.10;1.65;;;16.10;99.90;;;;;;5054275;28;20120;-70
2021/08/19 08:10:06;;;;;;;4.20;1.33;;;16.10;99.90;;;;;;5054382;28;20017;-70
2021/08/19 08:12:33;;;;;;;4.35;1.48;;;16.20;99.90;;;;;;5054010;28;20039;-70
2021/08/19 08:14:59;;;;;;;1.52;1.08;;;16.20;99.90;;;;;;5054209;28;20029;-70
2021/08/19 08:17:25;;;;;;;4.88;1.48;;;16.30;99.90;;;;;;5053920;28;20039;-70
2021/08/19 08:19:51;;;;;;;2.58;1.40;;;16.50;99.90;;;;;;5053853;28;20060;-72
2021/08/19 08:22:17;;;;;;;2.80;1.10;;;16.60;99.90;;;;;;5054174;28;20060;-71
2021/08/19 08:24:43;;;;;;;2.22;1.23;;;17.00;99.90;;;;;;5053725;28;20442;-70
2021/08/19 08:27:09;;;;;;;1.70;1.20;;;17.30;99.90;;;;;;5053767;28;20025;-68
2021/08/19 08:29:35;;;;;;;2.67;1.08;;;17.30;99.90;;;;;;5053781;28;20499;-72
2021/08/19 08:32:05;;;;;;;1.65;1.20;;;17.10;99.90;;;;;;5053491;28;20476;-70
2021/08/19 08:34:32;;;;;;;;;;;17.00;99.90;;;;;;5054155;28;20107;-69
2021/08/19 08:36:57;;;;;;;2.05;1.00;;;16.90;99.90;;;;;;5053424;28;19904;-69
2021/08/19 08:39:25;;;;;;;6.20;1.58;;;16.80;99.90;;;;;;5053827;28;20029;-69
2021/08/19 08:41:52;;;;;;;1.80;1.00;;;16.80;99.90;;;;;;5053315;28;20032;-69
2021/08/19 08:44:20;;;;;;;3.05;1.48;;;16.70;99.90;;;;;;5053829;28;20050;-70
2021/08/19 08:46:46;;;;;;;2.90;0.90;;;16.70;99.90;;;;;;5052625;28;20021;-69
2021/08/19 08:49:14;;;;;;;15.10;1.58;;;16.80;99.90;;;;;;5053482;28;20535;-70
2021/08/19 08:51:46;;;;;;;4.78;1.20;;;16.70;99.90;;;;;;5053404;28;20017;-69
2021/08/19 08:54:13;;;;;;;3.60;0.90;;;16.70;99.90;;;;;;5052236;28;20045;-70
2021/08/19 08:56:38;;;;;;;2.85;1.10;;;16.60;99.90;;;;;;5053246;28;20393;-70
2021/08/19 08:59:05;;;;;;;2.53;1.00;;;16.60;99.90;;;;;;5053472;28;20060;-69
2021/08/19 09:01:31;;;;;;;2.20;1.10;;;16.50;99.90;;;;;;5053186;28;20017;-69
2021/08/19 09:03:57;;;;;;;1.67;0.68;;;16.50;99.90;;;;;;5053000;28;20029;-68
2021/08/19 09:06:45;;;;;;;2.33;1.30;;;16.50;99.90;;;;;;5053327;28;20052;-68
2021/08/19 09:09:25;;;;;;;4.20;0.73;;;16.50;99.90;;;;;;5052967;28;20025;-69
2021/08/19 09:12:06;;;;;;;2.75;1.10;;;16.50;99.90;;;;;;5052896;28;20108;-70
2021/08/19 09:14:35;;;;;;;4.85;1.17;;;16.60;99.90;;;;;;5053166;28;20032;-70
2021/08/19 09:17:02;;;;;;;4.55;1.10;;;16.60;99.90;;;;;;5052970;28;20315;-70
2021/08/19 09:19:30;;;;;;;2.28;1.10;;;16.70;99.90;;;;;;5053017;28;20033;-70
2021/08/19 09:22:04;;;;;;;2.10;1.40;;;16.70;99.90;;;;;;5052834;28;20021;-70
2021/08/19 09:24:32;;;;;;;4.38;1.02;;;16.70;99.90;;;;;;5052931;28;20055;-70
2021/08/19 09:27:18;;;;;;;5.93;1.02;;;16.70;99.90;;;;;;5052372;28;20560;-69
2021/08/19 09:29:46;;;;;;;1.83;1.13;;;16.70;99.90;;;;;;5052408;28;20045;-69
2021/08/19 09:32:19;;;;;;;2.00;0.90;;;16.70;99.90;;;;;;5059761;28;20499;-69
2021/08/19 09:34:48;;;;;;;2.35;0.90;;;16.70;99.90;;;;;;5061331;28;20028;-69
2021/08/19 09:37:19;;;;;;;3.50;1.00;;;16.70;99.90;;;;;;5053826;28;20021;-69
2021/08/19 09:39:47;;;;;;;2.10;0.90;;;16.70;99.90;;;;;;5052285;28;20067;-69
2021/08/19 09:42:14;;;;;;;1.92;1.02;;;16.60;99.90;;;;;;5052080;28;20029;-68
2021/08/19 09:44:46;;;;;;;1.25;0.82;;;16.60;99.90;;;;;;5068817;28;20036;-68
2021/08/19 09:47:34;;;;;;;2.72;1.10;;;16.60;99.90;;;;;;5072048;28;20028;-68
2021/08/19 09:50:12;;;;;;;3.15;1.30;;;16.60;99.90;;;;;;5072164;28;20028;-68
2021/08/19 09:52:38;;;;;;;4.72;2.35;;;16.50;99.90;;;;;;5071918;28;20048;-68
2021/08/19 09:55:26;;;;;;;1.35;0.98;;;16.60;99.90;;;;;;5072062;28;20387;-68
2021/08/19 09:57:57;;;;;;;1.67;0.88;;;16.50;99.90;;;;;;5071475;28;20500;-67
2021/08/19 10:00:31;;;;;;;2.30;1.10;;;17.00;99.90;;;;;;5071784;28;20036;-68
2021/08/19 10:02:57;;;;;;;1.75;1.02;;;16.90;99.90;;;;;;5071987;28;20498;-69
2021/08/19 10:05:24;;;;;;;1.98;1.10;;;16.80;99.90;;;;;;5072001;28;20479;-68
2021/08/19 10:07:50;;;;;;;1.85;1.10;;;16.80;99.90;;;;;;5071856;28;20052;-68
2021/08/19 10:10:16;;;;;;;3.63;1.10;;;16.70;99.90;;;;;;5071896;28;20044;-68
2021/08/19 10:12:43;;;;;;;2.15;1.27;;;16.70;99.90;;;;;;5071939;28;20527;-68
2021/08/19 10:15:10;;;;;;;2.58;1.00;;;16.70;99.90;;;;;;5071827;28;20475;-68
2021/08/19 10:17:39;;;;;;;1.30;0.88;;;16.70;99.90;;;;;;5070668;28;20379;-68
2021/08/19 10:20:11;;;;;;;1.85;1.30;;;16.80;99.90;;;;;;5071814;28;20036;-69
2021/08/19 10:22:38;;;;;;;1.55;0.80;;;16.90;99.90;;;;;;5071929;28;20056;-69
2021/08/19 10:25:06;;;;;;;2.22;1.08;;;16.90;99.90;;;;;;5071877;28;20472;-69
2021/08/19 10:27:32;;;;;;;1.42;1.10;;;16.90;99.90;;;;;;5071961;28;20032;-68
2021/08/19 10:30:07;;;;;;;2.65;0.90;;;17.00;99.90;;;;;;5072106;28;20029;-69
2021/08/19 10:32:36;;;;;;;2.38;0.80;;;17.10;99.90;;;;;;5071750;28;20024;-69
2021/08/19 10:35:06;;;;;;;2.10;0.80;;;17.20;99.90;;;;;;5072050;28;20123;-69
2021/08/19 10:37:50;;;;;;;3.25;1.05;;;17.30;99.90;;;;;;5071677;28;20111;-69
2021/08/19 10:40:24;;;;;;;1.15;0.88;;;17.40;99.90;;;;;;5071681;28;20653;-69
2021/08/19 10:42:54;;;;;;;2.58;0.93;;;17.40;99.90;;;;;;5071461;28;20025;-69
2021/08/19 10:45:26;;;;;;;2.78;1.00;;;17.30;99.90;;;;;;5071696;28;20055;-69
2021/08/19 10:47:53;;;;;;;3.13;0.90;;;17.30;99.90;;;;;;5071475;28;20070;-69
2021/08/19 10:50:33;;;;;;;1.92;0.77;;;17.20;99.90;;;;;;5071518;28;20388;-69
2021/08/19 10:53:22;;;;;;;2.53;0.70;;;17.20;99.90;;;;;;5071183;28;20060;-69
2021/08/19 10:55:52;;;;;;;1.87;0.80;;;17.10;99.90;;;;;;5071551;28;20020;-69
2021/08/19 10:58:21;;;;;;;34.47;4.63;;;17.10;99.90;;;;;;5070047;28;20517;-69
2021/08/19 11:00:46;;;;;;;10.38;2.10;;;17.00;99.90;;;;;;5071616;28;20072;-69
2021/08/19 11:03:37;;;;;;;3.70;0.90;;;17.00;99.90;;;;;;5071482;28;20590;-69
2021/08/19 11:06:08;;;;;;;7.15;1.38;;;17.00;99.90;;;;;;5071441;28;20522;-69
2021/08/19 11:08:39;;;;;;;5.03;1.60;;;17.00;99.90;;;;;;5071487;28;20040;-71
2021/08/19 11:11:07;;;;;;;1.63;0.98;;;17.00;99.90;;;;;;5073825;28;20028;-68
2021/08/19 11:13:35;;;;;;;2.88;1.20;;;17.00;99.90;;;;;;5075454;28;20025;-68
2021/08/19 11:16:06;;;;;;;2.28;1.35;;;16.90;99.90;;;;;;5075313;28;20039;-69
2021/08/19 11:18:33;;;;;;;3.75;1.60;;;16.90;99.90;;;;;;5075317;28;20060;-69
2021/08/19 11:21:00;;;;;;;5.60;1.73;;;16.80;99.90;;;;;;5074877;28;20055;-68
2021/08/19 11:23:33;;;;;;;2.58;1.30;;;16.80;99.90;;;;;;5075025;28;20025;-68
2021/08/19 11:26:20;;;;;;;4.93;1.45;;;16.70;99.90;;;;;;5074893;28;20021;-68
2021/08/19 11:28:49;;;;;;;1.90;1.05;;;16.60;99.90;;;;;;5075150;28;20086;-68
2021/08/19 11:31:20;;;;;;;4.15;1.27;;;16.50;99.90;;;;;;5075008;28;20021;-68
2021/08/19 11:33:49;;;;;;;3.67;1.30;;;16.40;99.90;;;;;;5074714;28;20432;-66
2021/08/19 11:36:16;;;;;;;3.13;1.35;;;16.40;99.90;;;;;;5074882;28;20065;-66
2021/08/19 11:38:43;;;;;;;2.42;1.35;;;16.40;99.90;;;;;;5074861;28;20033;-66
2021/08/19 11:41:21;;;;;;;3.63;1.70;;;16.40;99.90;;;;;;5074722;28;20029;-66
2021/08/19 11:43:48;;;;;;;2.67;1.40;;;16.40;99.90;;;;;;5074626;28;20449;-66
2021/08/19 11:46:24;;;;;;;3.13;1.23;;;16.40;99.90;;;;;;5074802;28;20032;-68
2021/08/19 11:48:55;;;;;;;2.70;1.17;;;16.30;99.90;;;;;;5074985;28;20025;-68
2021/08/19 11:51:32;;;;;;;3.95;1.67;;;16.30;99.90;;;;;;5074807;28;20074;-66
2021/08/19 11:54:00;;;;;;;2.17;1.60;;;16.40;99.90;;;;;;5074183;28;20048;-66
2021/08/19 11:56:37;;;;;;;3.85;1.42;;;16.40;99.90;;;;;;5074765;28;20017;-68
2021/08/19 11:59:12;;;;;;;3.20;1.33;;;16.40;99.90;;;;;;5074573;28;20418;-68
2021/08/19 12:01:40;;;;;;;4.05;1.40;;;16.50;99.90;;;;;;5074636;28;20028;-68
2021/08/19 12:04:08;;;;;;;5.15;1.50;;;16.60;99.90;;;;;;5074421;28;20029;-68
2021/08/19 12:06:34;;;;;;;2.45;1.23;;;16.60;99.90;;;;;;5074327;28;20077;-68
2021/08/19 12:09:07;;;;;;;2.60;1.10;;;16.70;99.90;;;;;;5073830;28;20108;-68
2021/08/19 12:11:43;;;;;;;2.67;1.13;;;16.80;99.90;;;;;;5074516;28;20413;-68
2021/08/19 12:14:11;;;;;;;4.72;0.95;;;16.90;99.90;;;;;;5074101;28;20134;-68
2021/08/19 12:16:45;;;;;;;3.75;0.70;;;16.90;99.90;;;;;;5074317;28;20095;-69
2021/08/19 12:19:15;;;;;;;3.17;1.30;;;16.90;99.90;;;;;;5073868;28;20042;-69
2021/08/19 12:21:47;;;;;;;3.33;1.30;;;16.80;99.90;;;;;;5072935;28;20495;-69
2021/08/19 12:24:25;;;;;;;3.28;1.30;;;16.80;99.90;;;;;;5073836;28;20020;-68
2021/08/19 12:27:14;;;;;;;1.75;1.23;;;16.80;99.90;;;;;;5074041;28;20499;-69
2021/08/19 12:29:49;;;;;;;53.80;7.33;;;16.80;99.90;;;;;;5074186;28;20075;-72
2021/08/19 12:32:35;;;;;;;52.60;4.95;;;16.80;99.90;;;;;;5073609;28;20024;-72
2021/08/19 12:35:03;;;;;;;6.07;1.85;;;16.70;99.90;;;;;;5073565;28;20064;-78
2021/08/19 12:37:31;;;;;;;3.30;1.10;;;16.80;99.90;;;;;;5073662;28;20046;-72
2021/08/19 12:40:06;;;;;;;3.78;1.13;;;17.10;99.90;;;;;;5073706;28;20093;-72
2021/08/19 12:42:33;;;;;;;2.70;1.25;;;17.00;99.90;;;;;;5073871;28;20051;-72
2021/08/19 12:45:12;;;;;;;2.50;1.00;;;17.00;99.90;;;;;;5073420;28;20086;-70
2021/08/19 12:47:44;;;;;;;4.13;1.48;;;17.00;99.90;;;;;;5073493;28;20486;-69
2021/08/19 12:50:15;;;;;;;5.72;1.17;;;16.90;99.90;;;;;;5073585;28;20396;-68
2021/08/19 12:52:41;;;;;;;2.47;1.10;;;17.30;99.90;;;;;;5073366;28;20072;-69
2021/08/19 12:55:20;;;;;;;3.03;0.98;;;17.40;99.90;;;;;;5073132;28;20489;-68
2021/08/19 12:57:51;;;;;;;2.33;1.30;;;17.30;99.90;;;;;;5073330;28;20024;-69
2021/08/19 13:00:26;;;;;;;4.97;1.30;;;17.20;99.90;;;;;;5073090;28;20032;-69
2021/08/19 13:02:53;;;;;;;5.95;1.35;;;17.10;99.90;;;;;;5073192;28;20078;-69
2021/08/19 13:05:21;;;;;;;3.60;1.40;;;17.00;99.90;;;;;;5073074;28;20040;-69
2021/08/19 13:07:49;;;;;;;2.55;0.95;;;17.00;99.90;;;;;;5072994;28;20028;-68
2021/08/19 13:10:16;;;;;;;3.28;1.10;;;17.00;99.90;;;;;;5073043;28;20067;-69
2021/08/19 13:12:42;;;;;;;2.00;1.30;;;17.00;99.90;;;;;;5072975;28;20504;-68
2021/08/19 13:15:09;;;;;;;1.83;1.10;;;17.00;99.90;;;;;;5072977;28;20515;-69
2021/08/19 13:17:35;;;;;;;6.05;1.10;;;17.00;99.90;;;;;;5072885;28;20484;-70